Time;durP1;ratioP1;P1;durP2;ratioP2;P2;SDS_P1;SDS_P2;PMS_P1;PMS_P2;Temp;Humidity;BMP_temperature;BMP_pressure;BME280_temperature;BME280_humidity;BME280_pressure;Samples;Min_cycle;Max_cycle;Signal;HPM_P1;HPM_P2
2022/10/25 00:01:19;;;;;;;4.80;1.13;;;15.80;81.70;;;;;;5014047;28;20863;-78
2022/10/25 00:03:47;;;;;;;7.57;1.10;;;15.80;81.70;;;;;;5002331;28;20550;-79
2022/10/25 00:06:15;;;;;;;4.23;0.90;;;15.80;81.70;;;;;;4999956;28;20576;-78
2022/10/25 00:08:43;;;;;;;5.23;1.77;;;15.80;81.60;;;;;;5015939;28;20493;-79
2022/10/25 00:11:18;;;;;;;3.73;1.10;;;15.80;81.60;;;;;;5000205;28;20482;-76
2022/10/25 00:13:48;;;;;;;5.17;1.30;;;15.80;81.60;;;;;;4997009;28;20997;-77
2022/10/25 00:16:18;;;;;;;4.30;1.30;;;15.80;81.60;;;;;;4997196;28;20468;-79
2022/10/25 00:18:47;;;;;;;4.00;1.13;;;15.80;81.50;;;;;;5002237;28;20457;-79
2022/10/25 00:21:15;;;;;;;3.50;1.00;;;15.80;81.40;;;;;;4999071;28;20445;-78
2022/10/25 00:23:43;;;;;;;6.17;1.50;;;15.80;81.30;;;;;;5001360;28;20542;-79
2022/10/25 00:26:12;;;;;;;4.90;1.10;;;15.70;81.40;;;;;;4998791;28;20457;-77
2022/10/25 00:28:40;;;;;;;5.63;1.17;;;15.70;81.40;;;;;;5000337;28;20516;-78
2022/10/25 00:31:11;;;;;;;6.10;1.30;;;15.70;81.30;;;;;;4996540;28;20460;-78
2022/10/25 00:33:41;;;;;;;5.23;1.10;;;15.70;81.40;;;;;;5000584;28;20479;-76
2022/10/25 00:36:12;;;;;;;4.43;1.17;;;15.70;81.40;;;;;;5002932;28;20543;-77
2022/10/25 00:38:40;;;;;;;5.67;0.97;;;15.70;81.20;;;;;;5003304;28;20456;-77
2022/10/25 00:41:09;;;;;;;4.90;1.30;;;15.70;81.10;;;;;;4999755;28;20466;-78
2022/10/25 00:43:40;;;;;;;6.20;1.43;;;15.60;81.10;;;;;;4996074;28;20472;-79
2022/10/25 00:46:16;;;;;;;5.00;1.13;;;15.60;81.20;;;;;;4995547;28;20449;-76
2022/10/25 00:48:53;;;;;;;5.53;1.23;;;15.60;81.20;;;;;;5000312;28;21232;-77
2022/10/25 00:51:23;;;;;;;4.60;0.93;;;15.50;81.40;;;;;;4997446;28;20453;-77
2022/10/25 00:53:52;;;;;;;12.73;1.10;;;15.50;81.30;;;;;;5002666;28;20484;-79
2022/10/25 00:56:23;;;;;;;4.60;1.00;;;15.50;81.30;;;;;;4999204;28;20461;-77
2022/10/25 00:58:57;;;;;;;5.63;1.13;;;15.50;81.30;;;;;;5000067;28;20453;-78
2022/10/25 01:01:26;;;;;;;3.63;1.27;;;15.50;81.30;;;;;;5002749;28;21012;-77
2022/10/25 01:03:59;;;;;;;6.13;1.07;;;15.50;81.30;;;;;;5002787;28;20500;-78
2022/10/25 01:06:33;;;;;;;6.77;1.13;;;15.50;81.40;;;;;;5003875;28;20602;-78
2022/10/25 01:09:02;;;;;;;4.83;0.90;;;15.50;81.40;;;;;;5000585;28;20448;-77
2022/10/25 01:11:30;;;;;;;5.07;0.90;;;15.50;81.30;;;;;;5000684;28;20461;-77
2022/10/25 01:13:59;;;;;;;7.50;1.07;;;15.50;81.30;;;;;;5001446;28;20480;-78
2022/10/25 01:16:34;;;;;;;4.37;1.37;;;15.50;81.20;;;;;;5000580;28;20453;-78
2022/10/25 01:19:17;;;;;;;5.80;1.40;;;15.50;81.10;;;;;;4995979;28;20475;-78
2022/10/25 01:21:48;;;;;;;4.00;1.20;;;15.50;81.20;;;;;;4995755;28;20464;-78
2022/10/25 01:24:35;;;;;;;4.20;0.83;;;15.50;81.20;;;;;;5003532;28;20488;-77
2022/10/25 01:27:37;;;;;;;7.77;1.27;;;15.50;81.10;;;;;;5002487;28;20493;-76
2022/10/25 01:30:10;;;;;;;7.20;1.07;;;15.50;81.10;;;;;;5003153;28;20528;-77
2022/10/25 01:32:47;;;;;;;3.97;0.93;;;15.40;81.20;;;;;;5001474;28;20456;-78
2022/10/25 01:35:25;;;;;;;5.60;0.90;;;15.40;81.20;;;;;;5001226;28;20464;-77
2022/10/25 01:38:13;;;;;;;4.40;0.87;;;15.40;81.10;;;;;;5008432;28;20437;-77
2022/10/25 01:40:50;;;;;;;4.30;0.93;;;15.40;81.00;;;;;;4999737;28;20472;-77
2022/10/25 01:43:29;;;;;;;3.47;0.93;;;15.40;81.00;;;;;;4997143;28;21005;-77
2022/10/25 01:46:06;;;;;;;6.30;1.20;;;15.40;81.00;;;;;;5003738;28;20859;-78
2022/10/25 01:48:41;;;;;;;4.27;1.10;;;15.40;81.00;;;;;;5003490;28;20540;-77
2022/10/25 01:51:11;;;;;;;4.30;1.00;;;15.40;81.00;;;;;;5001699;28;20511;-77
2022/10/25 01:53:47;;;;;;;6.20;1.00;;;15.40;81.00;;;;;;5005730;28;20484;-77
2022/10/25 01:56:23;;;;;;;3.77;0.80;;;15.40;81.00;;;;;;5002915;28;20456;-79
2022/10/25 01:59:25;;;;;;;4.87;0.90;;;15.40;81.00;;;;;;5002882;28;20448;-78
2022/10/25 02:02:09;;;;;;;6.93;1.53;;;15.40;80.80;;;;;;4996197;28;20452;-78
2022/10/25 02:04:48;;;;;;;4.80;1.13;;;15.40;80.90;;;;;;5003227;28;20481;-78
2022/10/25 02:07:23;;;;;;;9.20;2.00;;;15.40;80.90;;;;;;5001912;28;21011;-77
2022/10/25 02:10:00;;;;;;;4.40;0.83;;;15.40;80.90;;;;;;5001963;28;20973;-76
2022/10/25 02:12:32;;;;;;;5.00;0.90;;;15.40;80.80;;;;;;5003959;28;20460;-78
2022/10/25 02:15:08;;;;;;;5.87;0.80;;;15.40;80.80;;;;;;5002165;28;20503;-78
2022/10/25 02:17:41;;;;;;;6.47;1.13;;;15.40;80.80;;;;;;4998751;28;20475;-77
2022/10/25 02:20:12;;;;;;;3.43;1.00;;;15.40;80.80;;;;;;5000231;28;20575;-78
2022/10/25 02:22:41;;;;;;;6.33;1.73;;;15.40;80.80;;;;;;5001745;28;20453;-78
2022/10/25 02:25:10;;;;;;;7.33;1.30;;;15.40;80.80;;;;;;5003172;28;20535;-79
2022/10/25 02:27:39;;;;;;;9.70;1.83;;;15.40;80.90;;;;;;5005730;28;20480;-77
2022/10/25 02:30:08;;;;;;;4.47;0.90;;;15.40;80.90;;;;;;4999870;28;20962;-78
2022/10/25 02:32:36;;;;;;;4.23;0.87;;;15.40;80.90;;;;;;5002578;28;20479;-78
2022/10/25 02:35:05;;;;;;;4.20;0.90;;;15.40;80.90;;;;;;5001864;28;20871;-78
2022/10/25 02:37:34;;;;;;;5.13;0.90;;;15.40;80.90;;;;;;5002085;28;20454;-78
2022/10/25 02:40:02;;;;;;;4.53;1.10;;;15.40;80.90;;;;;;5006150;28;20974;-79
2022/10/25 02:42:30;;;;;;;3.10;0.60;;;15.40;80.80;;;;;;5013241;28;20481;-79
2022/10/25 02:44:58;;;;;;;7.87;1.67;;;15.50;80.80;;;;;;5007746;28;20485;-78
2022/10/25 02:47:26;;;;;;;5.47;0.90;;;15.50;80.80;;;;;;5004218;28;20962;-78
2022/10/25 02:49:54;;;;;;;8.73;1.50;;;15.40;80.80;;;;;;5003444;28;20985;-78
2022/10/25 02:52:22;;;;;;;4.90;1.03;;;15.50;80.80;;;;;;5002364;28;20946;-78
2022/10/25 02:54:51;;;;;;;9.63;1.13;;;15.40;80.70;;;;;;5001251;28;20482;-77
2022/10/25 02:57:19;;;;;;;5.47;1.00;;;15.40;80.70;;;;;;4998743;28;20469;-77
2022/10/25 02:59:48;;;;;;;10.07;1.30;;;15.40;80.70;;;;;;4999933;28;20572;-77
2022/10/25 03:02:16;;;;;;;5.07;0.97;;;15.40;80.80;;;;;;5002910;28;20448;-78
2022/10/25 03:04:44;;;;;;;5.87;1.30;;;15.40;80.80;;;;;;5001075;28;20480;-78
2022/10/25 03:07:12;;;;;;;6.27;0.77;;;15.40;80.80;;;;;;4998512;28;20457;-77
2022/10/25 03:09:40;;;;;;;6.20;1.20;;;15.40;80.70;;;;;;5001187;28;20485;-77
2022/10/25 03:12:09;;;;;;;6.23;0.97;;;15.40;80.70;;;;;;5003169;28;20449;-80
2022/10/25 03:14:37;;;;;;;6.73;1.20;;;15.40;80.70;;;;;;5001550;28;20826;-78
2022/10/25 03:17:06;;;;;;;4.27;0.90;;;15.30;80.70;;;;;;5003010;28;20461;-79
2022/10/25 03:19:34;;;;;;;4.57;1.00;;;15.30;80.70;;;;;;4999935;28;20588;-78
2022/10/25 03:22:02;;;;;;;4.33;0.90;;;15.30;80.80;;;;;;4998640;28;20965;-78
2022/10/25 03:24:30;;;;;;;3.40;0.90;;;15.30;80.80;;;;;;4998761;28;20828;-79
2022/10/25 03:26:59;;;;;;;5.17;0.70;;;15.30;80.70;;;;;;5004702;28;20469;-78
2022/10/25 03:29:28;;;;;;;4.33;0.90;;;15.30;80.70;;;;;;5002183;28;20508;-78
2022/10/25 03:31:56;;;;;;;4.30;1.53;;;15.30;80.70;;;;;;5001359;28;20460;-78
2022/10/25 03:34:24;;;;;;;4.57;1.20;;;15.30;80.60;;;;;;5001340;28;20484;-77
2022/10/25 03:36:52;;;;;;;4.63;0.80;;;15.30;80.60;;;;;;5001057;28;20466;-77
2022/10/25 03:39:20;;;;;;;7.10;1.77;;;15.20;80.60;;;;;;4999902;28;20462;-77
2022/10/25 03:41:47;;;;;;;7.43;1.20;;;15.20;80.70;;;;;;4999286;28;21026;-79
2022/10/25 03:44:15;;;;;;;8.10;0.90;;;15.20;80.70;;;;;;5002207;28;20485;-78
2022/10/25 03:46:45;;;;;;;6.07;1.20;;;15.10;80.80;;;;;;5000599;28;21033;-79
2022/10/25 03:49:13;;;;;;;3.87;1.10;;;15.10;80.90;;;;;;5000749;28;20461;-79
2022/10/25 03:51:41;;;;;;;7.63;1.77;;;15.10;80.90;;;;;;5002037;28;20457;-79
2022/10/25 03:54:08;;;;;;;6.87;1.30;;;15.10;80.80;;;;;;5003043;28;20481;-78
2022/10/25 03:56:36;;;;;;;9.10;1.77;;;15.10;81.00;;;;;;5014794;28;20953;-78
2022/10/25 03:59:04;;;;;;;4.47;1.17;;;15.10;81.00;;;;;;5002537;28;20449;-79
2022/10/25 04:01:32;;;;;;;6.87;1.20;;;15.10;81.00;;;;;;4998565;28;20454;-79
2022/10/25 04:04:02;;;;;;;5.80;1.17;;;15.00;81.00;;;;;;5000950;28;20480;-77
2022/10/25 04:06:30;;;;;;;5.43;1.20;;;15.00;81.00;;;;;;5000173;28;20462;-79
2022/10/25 04:08:58;;;;;;;9.33;1.13;;;15.00;81.00;;;;;;4997543;28;20492;-78
2022/10/25 04:11:26;;;;;;;4.70;1.03;;;14.90;81.10;;;;;;4998347;28;20450;-78
2022/10/25 04:13:54;;;;;;;3.97;1.10;;;15.00;81.10;;;;;;5001384;28;20484;-78
2022/10/25 04:16:22;;;;;;;6.00;1.00;;;14.90;81.10;;;;;;5004908;28;20550;-78
2022/10/25 04:18:50;;;;;;;4.27;1.10;;;14.90;81.10;;;;;;4999828;28;20454;-77
2022/10/25 04:21:20;;;;;;;4.00;1.10;;;14.90;81.20;;;;;;4997676;28;20449;-79
2022/10/25 04:23:49;;;;;;;5.57;1.03;;;14.90;81.20;;;;;;4998592;28;20457;-76
2022/10/25 04:26:19;;;;;;;3.90;1.20;;;14.90;81.20;;;;;;5004598;28;20476;-78
2022/10/25 04:28:50;;;;;;;8.93;1.43;;;14.80;81.30;;;;;;5002006;28;20476;-78
2022/10/25 04:31:19;;;;;;;5.27;1.00;;;14.80;81.40;;;;;;5001566;28;20446;-79
2022/10/25 04:33:48;;;;;;;5.60;1.20;;;14.90;81.50;;;;;;4995335;28;20536;-78
2022/10/25 04:36:16;;;;;;;5.10;0.80;;;14.90;81.30;;;;;;5000391;28;20460;-77
2022/10/25 04:38:47;;;;;;;8.67;1.30;;;14.90;81.30;;;;;;4999656;28;20466;-78
2022/10/25 04:41:16;;;;;;;3.60;1.10;;;14.90;81.40;;;;;;5016671;28;20464;-77
2022/10/25 04:43:44;;;;;;;6.13;1.17;;;14.90;81.40;;;;;;5003509;28;20988;-78
2022/10/25 04:46:12;;;;;;;5.87;1.40;;;14.90;81.40;;;;;;5007183;28;20495;-78
2022/10/25 04:48:41;;;;;;;7.93;1.60;;;14.90;81.40;;;;;;5008659;28;20461;-77
2022/10/25 04:51:11;;;;;;;11.70;1.80;;;14.90;81.50;;;;;;5008928;28;20467;-77
2022/10/25 04:53:39;;;;;;;10.00;1.10;;;14.90;81.60;;;;;;5008230;28;20481;-78
2022/10/25 04:56:10;;;;;;;4.87;1.50;;;14.90;81.60;;;;;;5009134;28;20448;-78
2022/10/25 04:58:38;;;;;;;4.90;1.17;;;15.00;81.60;;;;;;5004814;28;20844;-77
2022/10/25 05:01:08;;;;;;;4.27;1.40;;;15.00;81.60;;;;;;5028232;28;20463;-78
2022/10/25 05:03:36;;;;;;;10.30;1.47;;;15.00;81.50;;;;;;5003505;28;20469;-78
2022/10/25 05:06:09;;;;;;;7.87;1.40;;;15.00;81.50;;;;;;5007248;28;20488;-77
2022/10/25 05:08:40;;;;;;;6.27;1.30;;;15.00;81.60;;;;;;5002327;28;20464;-77
2022/10/25 05:11:11;;;;;;;4.67;1.33;;;15.00;81.50;;;;;;5003001;28;20452;-77
2022/10/25 05:13:40;;;;;;;7.20;1.40;;;15.00;81.50;;;;;;5002404;28;20486;-77
2022/10/25 05:16:13;;;;;;;9.90;1.73;;;15.00;81.50;;;;;;5000029;28;20441;-78
2022/10/25 05:18:44;;;;;;;5.53;1.50;;;14.90;81.40;;;;;;5003594;28;20854;-79
2022/10/25 05:21:12;;;;;;;5.63;1.30;;;14.90;81.60;;;;;;5005244;28;21197;-79
2022/10/25 05:23:41;;;;;;;4.10;1.10;;;14.90;81.60;;;;;;5002957;28;20473;-78
2022/10/25 05:26:12;;;;;;;6.93;1.20;;;14.90;81.50;;;;;;5000324;28;20452;-79
2022/10/25 05:28:42;;;;;;;8.93;1.73;;;14.90;81.50;;;;;;5006165;28;20472;-77
2022/10/25 05:31:14;;;;;;;6.20;1.57;;;14.80;81.60;;;;;;5005981;28;20532;-79
2022/10/25 05:33:43;;;;;;;7.00;1.43;;;14.80;81.70;;;;;;5005142;28;20477;-78
2022/10/25 05:36:12;;;;;;;5.53;1.60;;;14.80;81.70;;;;;;5006526;28;21059;-78
2022/10/25 05:38:40;;;;;;;6.67;1.57;;;14.80;81.70;;;;;;5006238;28;20450;-78
2022/10/25 05:41:12;;;;;;;7.30;1.80;;;14.80;81.70;;;;;;5005670;28;20544;-78
2022/10/25 05:43:41;;;;;;;6.80;1.43;;;14.90;81.80;;;;;;5004772;28;20526;-79
2022/10/25 05:46:11;;;;;;;5.13;1.53;;;14.90;81.90;;;;;;4999734;28;20845;-78
2022/10/25 05:48:40;;;;;;;16.60;2.57;;;14.90;81.90;;;;;;5002118;28;20516;-78
2022/10/25 05:51:16;;;;;;;9.57;1.53;;;14.90;81.80;;;;;;5003656;28;20472;-78
2022/10/25 05:54:06;;;;;;;6.60;1.40;;;14.90;81.80;;;;;;5001887;28;20512;-77
2022/10/25 05:56:36;;;;;;;6.63;1.37;;;14.90;81.90;;;;;;5007617;28;20456;-78
2022/10/25 05:59:07;;;;;;;5.43;1.20;;;14.90;81.80;;;;;;5003844;28;20456;-78
2022/10/25 06:01:36;;;;;;;8.60;1.27;;;15.00;81.90;;;;;;5001938;28;20461;-79
2022/10/25 06:04:05;;;;;;;5.70;1.60;;;15.00;81.90;;;;;;5005273;28;20484;-78
2022/10/25 06:06:33;;;;;;;4.83;1.37;;;15.00;81.80;;;;;;5005882;28;20511;-78
2022/10/25 06:09:01;;;;;;;7.67;1.77;;;15.00;81.90;;;;;;5002649;28;20460;-78
2022/10/25 06:11:32;;;;;;;4.03;1.40;;;15.00;82.00;;;;;;4999495;28;20486;-78
2022/10/25 06:14:01;;;;;;;4.90;1.40;;;15.00;81.90;;;;;;5016422;28;20491;-78
2022/10/25 06:16:29;;;;;;;8.97;1.87;;;15.00;81.90;;;;;;5001904;28;20462;-77
2022/10/25 06:18:57;;;;;;;8.03;2.23;;;15.00;81.90;;;;;;5007922;28;20453;-78
2022/10/25 06:21:28;;;;;;;7.97;2.00;;;15.00;81.90;;;;;;5012172;28;20975;-79
2022/10/25 06:23:57;;;;;;;7.10;1.70;;;15.00;81.90;;;;;;5001774;28;20464;-77
2022/10/25 06:26:28;;;;;;;7.63;1.33;;;15.00;81.80;;;;;;5007467;28;20456;-79
2022/10/25 06:28:57;;;;;;;13.37;1.80;;;15.00;81.90;;;;;;5003435;28;21089;-79
2022/10/25 06:31:27;;;;;;;8.20;1.70;;;15.00;81.80;;;;;;4998318;28;20507;-78
2022/10/25 06:33:55;;;;;;;7.30;1.93;;;15.00;81.80;;;;;;5016028;28;20559;-79
2022/10/25 06:36:25;;;;;;;5.00;1.67;;;14.90;81.90;;;;;;5000812;28;20456;-79
2022/10/25 06:38:54;;;;;;;5.60;1.40;;;15.00;82.00;;;;;;5001225;28;20465;-80
2022/10/25 06:41:23;;;;;;;5.87;1.50;;;15.00;82.00;;;;;;5001654;28;20507;-79
2022/10/25 06:43:51;;;;;;;6.43;1.40;;;15.00;82.00;;;;;;5002459;28;20563;-79
2022/10/25 06:46:22;;;;;;;5.80;1.30;;;15.00;82.00;;;;;;5003432;28;20970;-80
2022/10/25 06:48:54;;;;;;;5.53;1.53;;;14.90;82.00;;;;;;5014696;28;20485;-79
2022/10/25 06:51:23;;;;;;;5.90;1.50;;;15.00;82.00;;;;;;5002229;28;20473;-79
2022/10/25 06:53:53;;;;;;;5.20;1.10;;;15.00;82.00;;;;;;5000410;28;20998;-79
2022/10/25 06:56:21;;;;;;;4.80;1.17;;;14.90;82.10;;;;;;5005476;28;20460;-78
2022/10/25 06:58:50;;;;;;;8.60;1.50;;;14.90;82.00;;;;;;5002881;28;20564;-78
2022/10/25 07:01:19;;;;;;;6.10;1.70;;;14.90;82.00;;;;;;5005859;28;20545;-78
2022/10/25 07:03:49;;;;;;;7.20;1.57;;;14.90;82.10;;;;;;5007843;28;20488;-79
2022/10/25 07:06:21;;;;;;;7.20;1.73;;;14.90;82.10;;;;;;5008096;28;20468;-78
2022/10/25 07:08:53;;;;;;;12.20;2.07;;;14.90;82.20;;;;;;4999871;28;20484;-77
2022/10/25 07:11:22;;;;;;;5.87;1.30;;;14.90;82.30;;;;;;5000484;28;20551;-78
2022/10/25 07:13:50;;;;;;;7.57;1.50;;;15.00;82.40;;;;;;4998864;28;20484;-78
2022/10/25 07:16:20;;;;;;;4.47;1.60;;;15.00;82.40;;;;;;5016995;28;20465;-80
2022/10/25 07:18:49;;;;;;;8.60;1.63;;;15.00;82.40;;;;;;5006344;28;21001;-77
2022/10/25 07:21:20;;;;;;;6.50;1.67;;;15.00;82.50;;;;;;4999861;28;21045;-79
2022/10/25 07:23:49;;;;;;;8.03;2.43;;;15.00;82.60;;;;;;4999721;28;20524;-79
2022/10/25 07:26:19;;;;;;;7.10;1.60;;;15.10;82.60;;;;;;5016098;28;20483;-79
2022/10/25 07:28:49;;;;;;;7.13;1.90;;;15.10;82.50;;;;;;5000932;28;20446;-79
2022/10/25 07:31:20;;;;;;;6.67;1.70;;;15.20;82.60;;;;;;5003248;28;20532;-79
2022/10/25 07:33:48;;;;;;;6.10;1.77;;;15.20;82.50;;;;;;5000877;28;20477;-79
2022/10/25 07:36:18;;;;;;;5.00;1.50;;;15.30;82.60;;;;;;5007019;28;21025;-77
2022/10/25 07:38:46;;;;;;;6.13;1.70;;;15.30;82.60;;;;;;5004082;28;20483;-78
2022/10/25 07:41:14;;;;;;;6.47;1.73;;;15.30;82.60;;;;;;5005901;28;20539;-76
2022/10/25 07:43:42;;;;;;;6.73;1.47;;;15.40;82.60;;;;;;5000219;28;20480;-78
2022/10/25 07:46:10;;;;;;;10.33;2.53;;;15.40;82.70;;;;;;5003356;28;20464;-79
2022/10/25 07:48:38;;;;;;;4.70;1.77;;;15.40;82.70;;;;;;5017656;28;21020;-77
2022/10/25 07:51:08;;;;;;;8.73;1.90;;;15.40;82.80;;;;;;5001397;28;20604;-77
2022/10/25 07:53:37;;;;;;;7.60;1.50;;;15.40;82.70;;;;;;4997100;28;20468;-79
2022/10/25 07:56:06;;;;;;;12.17;2.17;;;15.40;82.80;;;;;;5004294;28;20456;-79
2022/10/25 07:58:34;;;;;;;7.43;1.50;;;15.40;82.90;;;;;;5006358;28;20456;-78
2022/10/25 08:01:03;;;;;;;6.67;1.47;;;15.50;82.90;;;;;;4999829;28;20456;-78
2022/10/25 08:03:32;;;;;;;5.40;1.67;;;15.50;83.00;;;;;;5000927;28;20484;-78
2022/10/25 08:06:00;;;;;;;6.80;1.60;;;15.50;83.00;;;;;;4997671;28;20826;-78
2022/10/25 08:08:30;;;;;;;7.33;1.57;;;15.50;83.10;;;;;;4998605;28;20844;-79
2022/10/25 08:11:03;;;;;;;8.83;2.57;;;15.60;83.20;;;;;;5005807;28;20481;-78
2022/10/25 08:13:30;;;;;;;6.10;1.93;;;15.70;83.10;;;;;;5018847;28;20543;-78
2022/10/25 08:15:59;;;;;;;7.13;2.20;;;15.70;83.10;;;;;;5000642;28;20554;-80
2022/10/25 08:18:27;;;;;;;7.63;1.80;;;15.80;83.10;;;;;;5002000;28;21119;-78
2022/10/25 08:20:55;;;;;;;5.17;2.13;;;15.80;83.00;;;;;;5002937;28;20958;-80
2022/10/25 08:23:30;;;;;;;6.37;1.33;;;15.80;83.00;;;;;;4997843;28;21001;-79
2022/10/25 08:26:00;;;;;;;10.63;1.93;;;15.90;83.00;;;;;;5002591;28;20453;-79
2022/10/25 08:28:29;;;;;;;6.07;1.83;;;15.90;83.10;;;;;;5001206;28;20453;-79
2022/10/25 08:30:59;;;;;;;5.97;1.77;;;16.00;83.10;;;;;;5001881;28;20480;-77
2022/10/25 08:33:28;;;;;;;8.27;1.67;;;16.00;83.10;;;;;;5002809;28;21049;-80
2022/10/25 08:35:58;;;;;;;5.40;1.53;;;16.10;83.00;;;;;;5002153;28;20468;-79
2022/10/25 08:38:26;;;;;;;7.33;1.67;;;16.10;83.00;;;;;;5000924;28;20449;-77
2022/10/25 08:41:02;;;;;;;16.47;1.70;;;16.20;83.10;;;;;;5004296;28;20473;-80
2022/10/25 08:43:52;;;;;;;6.23;1.43;;;16.20;83.10;;;;;;4999322;28;20587;-79
2022/10/25 08:46:23;;;;;;;14.23;2.57;;;16.30;83.10;;;;;;5001495;28;20510;-79
2022/10/25 08:48:56;;;;;;;6.67;1.80;;;16.30;83.10;;;;;;5004955;28;20461;-78
2022/10/25 08:51:28;;;;;;;4.83;1.30;;;16.30;83.10;;;;;;5000188;28;20543;-78
2022/10/25 08:54:01;;;;;;;6.53;2.00;;;16.40;83.10;;;;;;4999293;28;20473;-79
2022/10/25 08:56:32;;;;;;;13.10;2.47;;;16.40;83.20;;;;;;5002447;28;20874;-79
2022/10/25 08:59:01;;;;;;;6.30;1.80;;;16.40;83.20;;;;;;5000344;28;20869;-79
2022/10/25 09:01:40;;;;;;;6.20;1.57;;;16.50;83.10;;;;;;4999136;28;20453;-77
2022/10/25 09:04:09;;;;;;;10.50;1.77;;;16.50;83.10;;;;;;4998547;28;20503;-78
2022/10/25 09:06:43;;;;;;;9.43;1.90;;;16.60;83.10;;;;;;5012086;28;20473;-79
2022/10/25 09:09:24;;;;;;;9.40;2.03;;;16.60;83.20;;;;;;5007389;28;20452;-79
2022/10/25 09:12:03;;;;;;;6.97;2.40;;;16.70;83.00;;;;;;4999549;28;20477;-79
2022/10/25 09:14:42;;;;;;;6.70;1.70;;;16.70;83.00;;;;;;4996953;28;20469;-80
2022/10/25 09:17:18;;;;;;;9.00;1.77;;;16.70;82.90;;;;;;5003661;28;20464;-79
2022/10/25 09:20:01;;;;;;;6.10;1.40;;;16.70;82.90;;;;;;4999990;28;20462;-79
2022/10/25 09:22:30;;;;;;;7.10;1.60;;;16.70;82.90;;;;;;5000473;28;20436;-78
2022/10/25 09:25:01;;;;;;;10.03;1.73;;;16.70;82.90;;;;;;4999439;28;20476;-79
2022/10/25 09:27:35;;;;;;;10.50;1.57;;;16.80;82.80;;;;;;5006453;28;20515;-78
2022/10/25 09:30:07;;;;;;;6.70;1.90;;;16.80;82.80;;;;;;5003848;28;20456;-80
2022/10/25 09:32:39;;;;;;;7.70;1.43;;;16.80;82.70;;;;;;5004315;28;20474;-80
2022/10/25 09:35:14;;;;;;;5.40;1.00;;;16.80;82.70;;;;;;4997705;28;20476;-78
2022/10/25 09:37:45;;;;;;;7.43;2.10;;;16.80;82.70;;;;;;5001007;28;20942;-78
2022/10/25 09:40:17;;;;;;;16.37;2.50;;;16.90;82.60;;;;;;5008888;28;20508;-79
2022/10/25 09:42:52;;;;;;;6.23;1.40;;;16.90;82.40;;;;;;4999351;28;20449;-79
2022/10/25 09:45:25;;;;;;;8.90;1.60;;;16.90;82.30;;;;;;5017765;28;20564;-78
2022/10/25 09:48:03;;;;;;;5.97;1.33;;;16.90;82.30;;;;;;5000425;28;20465;-77
2022/10/25 09:50:40;;;;;;;8.20;1.60;;;16.90;82.30;;;;;;5018304;28;20464;-79
2022/10/25 09:53:11;;;;;;;8.20;1.70;;;16.80;82.20;;;;;;4995750;28;20472;-79
2022/10/25 09:55:48;;;;;;;10.87;2.20;;;16.80;82.20;;;;;;4999327;28;20476;-77
2022/10/25 09:58:20;;;;;;;6.70;1.67;;;16.80;82.00;;;;;;5005059;28;20460;-78
2022/10/25 10:00:49;;;;;;;4.60;1.50;;;16.80;81.90;;;;;;4998994;28;20827;-79
2022/10/25 10:03:18;;;;;;;6.73;1.60;;;16.80;81.70;;;;;;5001659;28;20454;-79
2022/10/25 10:05:50;;;;;;;8.77;1.43;;;16.80;81.70;;;;;;5002193;28;20503;-78
2022/10/25 10:08:18;;;;;;;6.90;1.43;;;16.80;81.70;;;;;;5005431;28;20464;-79
2022/10/25 10:10:48;;;;;;;9.70;1.87;;;16.80;81.70;;;;;;5007251;28;20483;-78
2022/10/25 10:13:27;;;;;;;4.90;1.30;;;16.80;81.70;;;;;;5004120;28;21064;-79
2022/10/25 10:15:58;;;;;;;5.30;1.70;;;16.80;81.70;;;;;;5017993;28;20465;-79
2022/10/25 10:18:29;;;;;;;8.37;1.80;;;16.80;81.70;;;;;;5019075;28;20456;-79
2022/10/25 10:21:17;;;;;;;9.77;2.00;;;16.90;81.60;;;;;;5008570;28;20472;-80
2022/10/25 10:23:50;;;;;;;5.60;1.43;;;16.90;81.60;;;;;;4998653;28;20998;-79
2022/10/25 10:26:24;;;;;;;7.57;1.73;;;16.90;81.60;;;;;;5002934;28;20453;-78
2022/10/25 10:29:03;;;;;;;6.73;1.50;;;16.90;81.50;;;;;;5020733;28;20453;-79
2022/10/25 10:31:37;;;;;;;8.73;2.90;;;16.90;81.50;;;;;;5003146;28;20475;-80
2022/10/25 10:34:07;;;;;;;4.20;1.13;;;16.90;81.40;;;;;;5014213;28;20978;-78
2022/10/25 10:36:35;;;;;;;9.70;1.23;;;16.90;81.40;;;;;;5001265;28;20461;-78
2022/10/25 10:39:20;;;;;;;6.10;1.30;;;16.90;81.50;;;;;;5002976;28;21559;-81
2022/10/25 10:42:02;;;;;;;6.30;1.37;;;16.90;81.60;;;;;;5005062;28;20468;-79
2022/10/25 10:44:33;;;;;;;70.67;41.00;;;16.90;81.70;;;;;;5002706;28;20547;-77
2022/10/25 10:47:09;;;;;;;14.37;7.40;;;17.00;81.70;;;;;;5005931;28;20919;-78
2022/10/25 10:49:40;;;;;;;11.63;2.67;;;17.00;81.60;;;;;;4998338;28;20516;-77
2022/10/25 10:52:26;;;;;;;9.97;2.60;;;17.10;81.50;;;;;;5009278;28;20523;-80
2022/10/25 10:54:55;;;;;;;5.97;1.47;;;17.10;81.50;;;;;;5000700;28;21028;-79
2022/10/25 10:57:29;;;;;;;8.00;1.67;;;17.10;81.50;;;;;;5005028;28;20994;-79
2022/10/25 11:00:00;;;;;;;3.67;1.20;;;17.10;81.50;;;;;;5001879;28;20448;-78
2022/10/25 11:02:37;;;;;;;7.70;1.50;;;17.10;81.40;;;;;;5002433;28;20461;-80
2022/10/25 11:05:23;;;;;;;8.07;1.70;;;17.10;81.50;;;;;;5001727;28;20500;-77
2022/10/25 11:07:57;;;;;;;11.43;2.30;;;17.10;81.40;;;;;;5015195;28;20461;-79
2022/10/25 11:10:28;;;;;;;5.17;0.90;;;17.20;81.30;;;;;;5005410;28;20456;-77
2022/10/25 11:13:24;;;;;;;8.00;1.40;;;17.20;81.40;;;;;;5015360;28;20489;-79
2022/10/25 11:16:18;;;;;;;6.83;1.57;;;17.20;81.30;;;;;;4965418;28;20472;-78
2022/10/25 11:19:06;;;;;;;5.37;1.17;;;17.20;81.20;;;;;;5008326;28;20901;-78
2022/10/25 11:21:46;;;;;;;8.53;1.20;;;17.20;81.10;;;;;;5007904;28;20498;-80
2022/10/25 11:24:26;;;;;;;5.70;1.30;;;17.20;81.00;;;;;;5004411;28;20468;-77
2022/10/25 11:27:00;;;;;;;7.50;1.37;;;17.20;80.90;;;;;;5026669;28;20453;-78
2022/10/25 11:29:51;;;;;;;5.97;1.40;;;17.20;80.80;;;;;;5011183;28;20820;-79
2022/10/25 11:33:06;;;;;;;6.40;1.20;;;17.20;80.70;;;;;;5008392;28;20461;-79
2022/10/25 11:35:57;;;;;;;5.80;1.67;;;17.20;80.60;;;;;;5023798;28;21308;-79
2022/10/25 11:38:37;;;;;;;5.63;1.20;;;17.20;80.60;;;;;;5000645;28;20457;-79
2022/10/25 11:41:17;;;;;;;5.67;1.07;;;17.30;80.50;;;;;;5004580;28;20472;-78
2022/10/25 11:43:59;;;;;;;8.13;1.10;;;17.30;80.40;;;;;;5000578;28;20484;-78
2022/10/25 11:46:35;;;;;;;5.93;1.07;;;17.30;80.40;;;;;;4998199;28;20453;-78
2022/10/25 11:49:27;;;;;;;5.30;1.17;;;17.30;80.40;;;;;;5006841;28;20460;-79
2022/10/25 11:52:14;;;;;;;6.90;1.37;;;17.30;80.30;;;;;;4996015;28;20496;-79
2022/10/25 11:54:57;;;;;;;6.73;1.10;;;17.40;80.20;;;;;;5004053;28;20493;-78
2022/10/25 11:57:34;;;;;;;5.20;1.07;;;17.40;80.00;;;;;;5001981;28;20487;-77
2022/10/25 12:00:11;;;;;;;5.57;1.10;;;17.40;79.40;;;;;;5004144;28;20950;-79
2022/10/25 12:03:00;;;;;;;4.13;1.13;;;17.40;79.80;;;;;;5001631;28;20458;-79
2022/10/25 12:05:40;;;;;;;4.40;0.93;;;17.50;79.70;;;;;;4998738;28;20449;-79
2022/10/25 12:08:22;;;;;;;6.80;1.40;;;17.50;79.70;;;;;;5000336;28;20515;-80
2022/10/25 12:10:55;;;;;;;3.77;1.00;;;17.50;79.30;;;;;;4996960;28;20454;-79
2022/10/25 12:13:28;;;;;;;4.70;1.17;;;17.60;79.20;;;;;;4999059;28;20536;-79
2022/10/25 12:15:58;;;;;;;4.13;0.90;;;17.60;79.20;;;;;;5001603;28;20454;-80
2022/10/25 12:18:31;;;;;;;3.70;0.70;;;17.60;79.10;;;;;;5006133;28;20463;-79
2022/10/25 12:21:02;;;;;;;3.13;0.77;;;17.60;79.00;;;;;;5001480;28;20457;-79
2022/10/25 12:23:35;;;;;;;4.03;0.83;;;17.60;78.90;;;;;;4996347;28;20532;-79
2022/10/25 12:26:09;;;;;;;5.47;1.37;;;17.60;78.60;;;;;;5019934;28;20519;-79
2022/10/25 12:28:43;;;;;;;4.70;1.07;;;17.60;78.50;;;;;;4995889;28;20674;-79
2022/10/25 12:31:17;;;;;;;4.00;0.80;;;17.60;78.40;;;;;;4998807;28;20456;-79
2022/10/25 12:33:51;;;;;;;5.63;0.70;;;17.60;78.30;;;;;;5000334;28;20562;-79
2022/10/25 12:36:27;;;;;;;3.00;0.77;;;17.60;78.00;;;;;;4997718;28;20464;-79
2022/10/25 12:38:57;;;;;;;4.27;0.90;;;17.50;78.10;;;;;;5002911;28;21201;-79
2022/10/25 12:41:29;;;;;;;4.13;0.90;;;17.50;78.10;;;;;;4994544;28;21371;-79
2022/10/25 12:44:14;;;;;;;8.30;0.80;;;17.50;77.90;;;;;;5001492;28;20472;-79
2022/10/25 12:47:09;;;;;;;3.30;0.70;;;17.50;77.60;;;;;;5000933;28;21248;-79
2022/10/25 12:50:00;;;;;;;5.83;0.90;;;17.50;77.70;;;;;;4999132;28;20457;-79
2022/10/25 12:52:34;;;;;;;4.80;0.77;;;17.50;77.60;;;;;;5001643;28;20457;-77
2022/10/25 12:55:43;;;;;;;3.80;1.00;;;17.50;77.40;;;;;;5000057;28;20499;-79
2022/10/25 12:58:27;;;;;;;3.83;0.70;;;17.50;77.30;;;;;;4994753;28;21270;-78
2022/10/25 13:01:14;;;;;;;4.33;0.83;;;17.50;77.30;;;;;;4998774;28;20492;-78
2022/10/25 13:04:06;;;;;;;3.60;0.83;;;17.50;77.20;;;;;;5002539;28;20544;-80
2022/10/25 13:06:36;;;;;;;6.77;1.10;;;17.50;77.10;;;;;;4994648;28;20445;-77
2022/10/25 13:09:09;;;;;;;3.73;0.87;;;17.60;77.10;;;;;;5002070;28;21091;-77
2022/10/25 13:11:40;;;;;;;3.70;1.23;;;17.60;77.10;;;;;;5012232;28;20472;-78
2022/10/25 13:14:23;;;;;;;4.30;0.87;;;17.60;77.00;;;;;;5016820;28;20492;-79